sensor_id;sensor_type;location;lat;lon;timestamp;P1;durP1;ratioP1;P2;durP2;ratioP2
46505;SDS011;32220;49.808;9.968;2022-09-03T00:02:27;0.63;;;0.63;;
46505;SDS011;32220;49.808;9.968;2022-09-03T00:05:03;0.63;;;0.63;;
46505;SDS011;32220;49.808;9.968;2022-09-03T00:07:38;0.80;;;0.80;;
46505;SDS011;32220;49.808;9.968;2022-09-03T00:10:13;0.73;;;0.60;;
46505;SDS011;32220;49.808;9.968;2022-09-03T00:12:48;1.17;;;0.90;;
46505;SDS011;32220;49.808;9.968;2022-09-03T00:15:19;0.70;;;0.70;;
46505;SDS011;32220;49.808;9.968;2022-09-03T00:17:51;0.60;;;0.60;;
46505;SDS011;32220;49.808;9.968;2022-09-03T00:20:23;0.70;;;0.60;;
46505;SDS011;32220;49.808;9.968;2022-09-03T00:22:58;0.70;;;0.70;;
46505;SDS011;32220;49.808;9.968;2022-09-03T00:25:32;0.70;;;0.70;;
46505;SDS011;32220;49.808;9.968;2022-09-03T00:28:05;0.83;;;0.60;;
46505;SDS011;32220;49.808;9.968;2022-09-03T00:30:39;0.60;;;0.60;;
46505;SDS011;32220;49.808;9.968;2022-09-03T00:33:10;0.87;;;0.80;;
46505;SDS011;32220;49.808;9.968;2022-09-03T00:35:45;1.20;;;1.10;;
46505;SDS011;32220;49.808;9.968;2022-09-03T00:38:20;2.03;;;0.90;;
46505;SDS011;32220;49.808;9.968;2022-09-03T00:40:52;1.03;;;0.80;;
46505;SDS011;32220;49.808;9.968;2022-09-03T00:43:36;1.00;;;1.00;;
46505;SDS011;32220;49.808;9.968;2022-09-03T00:46:14;0.83;;;0.80;;
46505;SDS011;32220;49.808;9.968;2022-09-03T00:51:50;1.37;;;0.67;;
46505;SDS011;32220;49.808;9.968;2022-09-03T00:54:30;0.80;;;0.67;;
46505;SDS011;32220;49.808;9.968;2022-09-03T00:57:10;1.90;;;1.50;;
46505;SDS011;32220;49.808;9.968;2022-09-03T00:59:53;0.97;;;0.87;;
46505;SDS011;32220;49.808;9.968;2022-09-03T01:02:27;1.57;;;0.97;;
46505;SDS011;32220;49.808;9.968;2022-09-03T01:05:05;0.70;;;0.70;;
46505;SDS011;32220;49.808;9.968;2022-09-03T01:07:39;0.97;;;0.80;;
46505;SDS011;32220;49.808;9.968;2022-09-03T01:10:20;0.80;;;0.80;;
46505;SDS011;32220;49.808;9.968;2022-09-03T01:12:58;0.60;;;0.60;;
46505;SDS011;32220;49.808;9.968;2022-09-03T01:15:34;0.80;;;0.80;;
46505;SDS011;32220;49.808;9.968;2022-09-03T01:18:12;1.80;;;1.00;;
46505;SDS011;32220;49.808;9.968;2022-09-03T01:20:49;0.80;;;0.80;;
46505;SDS011;32220;49.808;9.968;2022-09-03T01:26:38;0.87;;;0.70;;
46505;SDS011;32220;49.808;9.968;2022-09-03T01:29:21;0.70;;;0.70;;
46505;SDS011;32220;49.808;9.968;2022-09-03T01:31:54;0.60;;;0.60;;
46505;SDS011;32220;49.808;9.968;2022-09-03T01:34:32;1.13;;;1.03;;
46505;SDS011;32220;49.808;9.968;2022-09-03T01:37:13;0.93;;;0.73;;
46505;SDS011;32220;49.808;9.968;2022-09-03T01:39:50;1.10;;;1.00;;
46505;SDS011;32220;49.808;9.968;2022-09-03T01:42:30;1.07;;;0.87;;
46505;SDS011;32220;49.808;9.968;2022-09-03T01:45:28;2.00;;;0.90;;
46505;SDS011;32220;49.808;9.968;2022-09-03T01:48:10;0.80;;;0.70;;
46505;SDS011;32220;49.808;9.968;2022-09-03T01:50:48;0.77;;;0.77;;
46505;SDS011;32220;49.808;9.968;2022-09-03T01:53:39;0.80;;;0.70;;
46505;SDS011;32220;49.808;9.968;2022-09-03T01:56:26;1.00;;;0.80;;
46505;SDS011;32220;49.808;9.968;2022-09-03T01:59:02;0.73;;;0.73;;
46505;SDS011;32220;49.808;9.968;2022-09-03T02:01:40;1.00;;;0.90;;
46505;SDS011;32220;49.808;9.968;2022-09-03T02:04:16;0.80;;;0.80;;
46505;SDS011;32220;49.808;9.968;2022-09-03T02:06:45;1.33;;;0.90;;
46505;SDS011;32220;49.808;9.968;2022-09-03T02:09:14;1.00;;;0.90;;
46505;SDS011;32220;49.808;9.968;2022-09-03T02:11:43;0.70;;;0.70;;
46505;SDS011;32220;49.808;9.968;2022-09-03T02:14:13;0.80;;;0.80;;
46505;SDS011;32220;49.808;9.968;2022-09-03T02:16:42;0.60;;;0.60;;
46505;SDS011;32220;49.808;9.968;2022-09-03T02:19:12;2.00;;;0.80;;
46505;SDS011;32220;49.808;9.968;2022-09-03T02:21:43;1.20;;;0.90;;
46505;SDS011;32220;49.808;9.968;2022-09-03T02:24:14;0.93;;;0.60;;
46505;SDS011;32220;49.808;9.968;2022-09-03T02:26:42;1.00;;;0.83;;
46505;SDS011;32220;49.808;9.968;2022-09-03T02:29:11;0.60;;;0.60;;
46505;SDS011;32220;49.808;9.968;2022-09-03T02:31:42;1.60;;;0.80;;
46505;SDS011;32220;49.808;9.968;2022-09-03T02:34:10;0.90;;;0.80;;
46505;SDS011;32220;49.808;9.968;2022-09-03T02:36:40;1.23;;;0.80;;
46505;SDS011;32220;49.808;9.968;2022-09-03T02:39:10;1.03;;;0.83;;
46505;SDS011;32220;49.808;9.968;2022-09-03T02:41:38;0.80;;;0.80;;
46505;SDS011;32220;49.808;9.968;2022-09-03T02:44:07;0.60;;;0.60;;
46505;SDS011;32220;49.808;9.968;2022-09-03T02:46:40;0.70;;;0.70;;
46505;SDS011;32220;49.808;9.968;2022-09-03T02:49:11;0.60;;;0.60;;
46505;SDS011;32220;49.808;9.968;2022-09-03T02:51:40;0.60;;;0.60;;
46505;SDS011;32220;49.808;9.968;2022-09-03T02:54:09;1.10;;;0.90;;
46505;SDS011;32220;49.808;9.968;2022-09-03T02:56:38;0.77;;;0.77;;
46505;SDS011;32220;49.808;9.968;2022-09-03T02:59:07;0.70;;;0.70;;
46505;SDS011;32220;49.808;9.968;2022-09-03T03:01:36;0.70;;;0.70;;
46505;SDS011;32220;49.808;9.968;2022-09-03T03:04:05;0.80;;;0.80;;
46505;SDS011;32220;49.808;9.968;2022-09-03T03:06:33;0.73;;;0.70;;
46505;SDS011;32220;49.808;9.968;2022-09-03T03:09:01;1.37;;;1.00;;
46505;SDS011;32220;49.808;9.968;2022-09-03T03:11:31;2.00;;;0.80;;
46505;SDS011;32220;49.808;9.968;2022-09-03T03:14:01;2.83;;;0.87;;
46505;SDS011;32220;49.808;9.968;2022-09-03T03:16:29;2.10;;;0.97;;
46505;SDS011;32220;49.808;9.968;2022-09-03T03:18:57;1.03;;;0.90;;
46505;SDS011;32220;49.808;9.968;2022-09-03T03:21:26;1.90;;;0.90;;
46505;SDS011;32220;49.808;9.968;2022-09-03T03:23:54;0.80;;;0.80;;
46505;SDS011;32220;49.808;9.968;2022-09-03T03:26:22;0.80;;;0.80;;
46505;SDS011;32220;49.808;9.968;2022-09-03T03:28:56;1.10;;;1.00;;
46505;SDS011;32220;49.808;9.968;2022-09-03T03:31:25;1.37;;;0.90;;
46505;SDS011;32220;49.808;9.968;2022-09-03T03:33:55;1.93;;;1.30;;
46505;SDS011;32220;49.808;9.968;2022-09-03T03:36:27;1.27;;;0.93;;
46505;SDS011;32220;49.808;9.968;2022-09-03T03:38:57;1.00;;;0.90;;
46505;SDS011;32220;49.808;9.968;2022-09-03T03:41:27;0.73;;;0.70;;
46505;SDS011;32220;49.808;9.968;2022-09-03T03:43:58;0.70;;;0.67;;
46505;SDS011;32220;49.808;9.968;2022-09-03T03:46:29;0.80;;;0.80;;
46505;SDS011;32220;49.808;9.968;2022-09-03T03:48:58;1.67;;;1.00;;
46505;SDS011;32220;49.808;9.968;2022-09-03T03:51:27;1.17;;;1.03;;
46505;SDS011;32220;49.808;9.968;2022-09-03T03:53:56;0.77;;;0.77;;
46505;SDS011;32220;49.808;9.968;2022-09-03T03:56:24;0.90;;;0.90;;
46505;SDS011;32220;49.808;9.968;2022-09-03T03:58:53;0.90;;;0.90;;
46505;SDS011;32220;49.808;9.968;2022-09-03T04:01:21;1.10;;;1.00;;
46505;SDS011;32220;49.808;9.968;2022-09-03T04:03:50;0.90;;;0.73;;
46505;SDS011;32220;49.808;9.968;2022-09-03T04:06:18;1.10;;;1.00;;
46505;SDS011;32220;49.808;9.968;2022-09-03T04:08:48;1.77;;;1.00;;
46505;SDS011;32220;49.808;9.968;2022-09-03T04:11:17;1.13;;;1.03;;
46505;SDS011;32220;49.808;9.968;2022-09-03T04:13:46;1.23;;;1.00;;
46505;SDS011;32220;49.808;9.968;2022-09-03T04:16:16;1.80;;;0.87;;
46505;SDS011;32220;49.808;9.968;2022-09-03T04:18:45;1.87;;;1.07;;
46505;SDS011;32220;49.808;9.968;2022-09-03T04:21:15;1.00;;;0.90;;
46505;SDS011;32220;49.808;9.968;2022-09-03T04:23:44;1.13;;;1.03;;
46505;SDS011;32220;49.808;9.968;2022-09-03T04:26:15;1.10;;;1.00;;
46505;SDS011;32220;49.808;9.968;2022-09-03T04:28:45;1.20;;;1.00;;
46505;SDS011;32220;49.808;9.968;2022-09-03T04:31:14;1.40;;;1.03;;
46505;SDS011;32220;49.808;9.968;2022-09-03T04:33:43;1.33;;;1.13;;
46505;SDS011;32220;49.808;9.968;2022-09-03T04:36:11;0.97;;;0.97;;
46505;SDS011;32220;49.808;9.968;2022-09-03T04:38:42;1.17;;;1.07;;
46505;SDS011;32220;49.808;9.968;2022-09-03T04:41:11;2.33;;;1.10;;
46505;SDS011;32220;49.808;9.968;2022-09-03T04:43:41;1.30;;;1.20;;
46505;SDS011;32220;49.808;9.968;2022-09-03T04:46:10;1.07;;;0.97;;
46505;SDS011;32220;49.808;9.968;2022-09-03T04:48:39;1.17;;;1.00;;
46505;SDS011;32220;49.808;9.968;2022-09-03T04:51:08;1.37;;;1.17;;
46505;SDS011;32220;49.808;9.968;2022-09-03T04:53:40;1.30;;;1.20;;
46505;SDS011;32220;49.808;9.968;2022-09-03T04:56:12;1.20;;;1.10;;
46505;SDS011;32220;49.808;9.968;2022-09-03T04:58:43;0.90;;;0.90;;
46505;SDS011;32220;49.808;9.968;2022-09-03T05:01:12;1.50;;;1.40;;
46505;SDS011;32220;49.808;9.968;2022-09-03T05:03:42;1.10;;;1.10;;
46505;SDS011;32220;49.808;9.968;2022-09-03T05:06:11;1.43;;;0.90;;
46505;SDS011;32220;49.808;9.968;2022-09-03T05:08:39;1.63;;;1.10;;
46505;SDS011;32220;49.808;9.968;2022-09-03T05:11:07;1.17;;;1.00;;
46505;SDS011;32220;49.808;9.968;2022-09-03T05:13:35;1.37;;;1.10;;
46505;SDS011;32220;49.808;9.968;2022-09-03T05:16:05;1.07;;;1.00;;
46505;SDS011;32220;49.808;9.968;2022-09-03T05:18:35;1.47;;;1.10;;
46505;SDS011;32220;49.808;9.968;2022-09-03T05:21:03;1.80;;;1.17;;
46505;SDS011;32220;49.808;9.968;2022-09-03T05:23:34;3.23;;;1.40;;
46505;SDS011;32220;49.808;9.968;2022-09-03T05:26:04;1.10;;;1.00;;
46505;SDS011;32220;49.808;9.968;2022-09-03T05:28:35;0.93;;;0.90;;
46505;SDS011;32220;49.808;9.968;2022-09-03T05:31:06;1.57;;;1.40;;
46505;SDS011;32220;49.808;9.968;2022-09-03T05:33:35;1.23;;;1.03;;
46505;SDS011;32220;49.808;9.968;2022-09-03T05:36:04;1.30;;;1.10;;
46505;SDS011;32220;49.808;9.968;2022-09-03T05:38:33;2.00;;;1.00;;
46505;SDS011;32220;49.808;9.968;2022-09-03T05:41:01;1.00;;;0.80;;
46505;SDS011;32220;49.808;9.968;2022-09-03T05:43:31;2.50;;;1.03;;
46505;SDS011;32220;49.808;9.968;2022-09-03T05:45:59;1.30;;;1.20;;
46505;SDS011;32220;49.808;9.968;2022-09-03T05:48:29;1.10;;;1.03;;
46505;SDS011;32220;49.808;9.968;2022-09-03T05:50:58;1.50;;;0.97;;
46505;SDS011;32220;49.808;9.968;2022-09-03T05:53:26;1.20;;;1.10;;
46505;SDS011;32220;49.808;9.968;2022-09-03T05:55:55;1.20;;;1.10;;
46505;SDS011;32220;49.808;9.968;2022-09-03T05:58:23;1.27;;;1.17;;
46505;SDS011;32220;49.808;9.968;2022-09-03T06:00:51;1.03;;;0.93;;
46505;SDS011;32220;49.808;9.968;2022-09-03T06:03:19;1.20;;;1.10;;
46505;SDS011;32220;49.808;9.968;2022-09-03T06:05:51;1.10;;;1.10;;
46505;SDS011;32220;49.808;9.968;2022-09-03T06:08:20;2.70;;;1.60;;
46505;SDS011;32220;49.808;9.968;2022-09-03T06:10:48;1.30;;;1.20;;
46505;SDS011;32220;49.808;9.968;2022-09-03T06:13:16;2.50;;;1.40;;
46505;SDS011;32220;49.808;9.968;2022-09-03T06:15:43;1.80;;;1.20;;
46505;SDS011;32220;49.808;9.968;2022-09-03T06:18:11;1.30;;;1.10;;
46505;SDS011;32220;49.808;9.968;2022-09-03T06:20:39;1.10;;;1.00;;
46505;SDS011;32220;49.808;9.968;2022-09-03T06:23:08;2.23;;;1.20;;
46505;SDS011;32220;49.808;9.968;2022-09-03T06:25:36;1.53;;;1.00;;
46505;SDS011;32220;49.808;9.968;2022-09-03T06:28:04;1.23;;;1.10;;
46505;SDS011;32220;49.808;9.968;2022-09-03T06:30:33;1.30;;;1.20;;
46505;SDS011;32220;49.808;9.968;2022-09-03T06:33:02;1.93;;;1.37;;
46505;SDS011;32220;49.808;9.968;2022-09-03T06:35:29;1.03;;;1.00;;
46505;SDS011;32220;49.808;9.968;2022-09-03T06:37:57;1.83;;;1.00;;
46505;SDS011;32220;49.808;9.968;2022-09-03T06:40:26;1.17;;;0.87;;
46505;SDS011;32220;49.808;9.968;2022-09-03T06:42:56;2.27;;;1.20;;
46505;SDS011;32220;49.808;9.968;2022-09-03T06:45:28;1.70;;;1.00;;
46505;SDS011;32220;49.808;9.968;2022-09-03T06:47:56;1.33;;;1.00;;
46505;SDS011;32220;49.808;9.968;2022-09-03T06:50:24;1.07;;;0.97;;
46505;SDS011;32220;49.808;9.968;2022-09-03T06:52:52;1.93;;;0.90;;
46505;SDS011;32220;49.808;9.968;2022-09-03T06:55:20;1.83;;;1.10;;
46505;SDS011;32220;49.808;9.968;2022-09-03T06:57:54;1.10;;;1.00;;
46505;SDS011;32220;49.808;9.968;2022-09-03T07:00:21;2.53;;;1.17;;
46505;SDS011;32220;49.808;9.968;2022-09-03T07:02:54;1.27;;;1.17;;
46505;SDS011;32220;49.808;9.968;2022-09-03T07:05:23;2.07;;;1.27;;
46505;SDS011;32220;49.808;9.968;2022-09-03T07:07:53;1.20;;;1.10;;
46505;SDS011;32220;49.808;9.968;2022-09-03T07:10:21;1.00;;;0.90;;
46505;SDS011;32220;49.808;9.968;2022-09-03T07:12:50;1.10;;;0.97;;
46505;SDS011;32220;49.808;9.968;2022-09-03T07:15:21;1.30;;;1.17;;
46505;SDS011;32220;49.808;9.968;2022-09-03T07:17:49;3.20;;;1.07;;
46505;SDS011;32220;49.808;9.968;2022-09-03T07:20:17;1.17;;;1.07;;
46505;SDS011;32220;49.808;9.968;2022-09-03T07:22:45;1.40;;;1.20;;
46505;SDS011;32220;49.808;9.968;2022-09-03T07:25:13;1.40;;;1.23;;
46505;SDS011;32220;49.808;9.968;2022-09-03T07:27:41;1.23;;;1.13;;
46505;SDS011;32220;49.808;9.968;2022-09-03T07:30:11;1.17;;;1.10;;
46505;SDS011;32220;49.808;9.968;2022-09-03T07:32:39;1.03;;;0.93;;
46505;SDS011;32220;49.808;9.968;2022-09-03T07:35:07;1.47;;;1.00;;
46505;SDS011;32220;49.808;9.968;2022-09-03T07:37:35;2.00;;;1.17;;
46505;SDS011;32220;49.808;9.968;2022-09-03T07:40:03;1.43;;;1.13;;
46505;SDS011;32220;49.808;9.968;2022-09-03T07:42:31;1.30;;;1.20;;
46505;SDS011;32220;49.808;9.968;2022-09-03T07:45:00;1.63;;;1.10;;
46505;SDS011;32220;49.808;9.968;2022-09-03T07:47:32;1.53;;;1.43;;
46505;SDS011;32220;49.808;9.968;2022-09-03T07:49:59;0.87;;;0.87;;
46505;SDS011;32220;49.808;9.968;2022-09-03T07:52:27;1.10;;;1.00;;
46505;SDS011;32220;49.808;9.968;2022-09-03T07:54:55;1.73;;;0.90;;
46505;SDS011;32220;49.808;9.968;2022-09-03T07:57:22;2.50;;;1.47;;
46505;SDS011;32220;49.808;9.968;2022-09-03T07:59:50;1.97;;;1.30;;
46505;SDS011;32220;49.808;9.968;2022-09-03T08:02:18;1.73;;;1.00;;
46505;SDS011;32220;49.808;9.968;2022-09-03T08:04:47;0.93;;;0.83;;
46505;SDS011;32220;49.808;9.968;2022-09-03T08:07:14;1.37;;;0.90;;
46505;SDS011;32220;49.808;9.968;2022-09-03T08:09:42;1.60;;;0.80;;
46505;SDS011;32220;49.808;9.968;2022-09-03T08:12:10;1.43;;;1.33;;
46505;SDS011;32220;49.808;9.968;2022-09-03T08:14:37;3.70;;;0.90;;
46505;SDS011;32220;49.808;9.968;2022-09-03T08:17:05;1.43;;;1.30;;
46505;SDS011;32220;49.808;9.968;2022-09-03T08:19:32;1.73;;;1.13;;
46505;SDS011;32220;49.808;9.968;2022-09-03T08:22:02;1.10;;;1.00;;
46505;SDS011;32220;49.808;9.968;2022-09-03T08:24:29;1.43;;;1.00;;
46505;SDS011;32220;49.808;9.968;2022-09-03T08:26:59;2.53;;;1.10;;
46505;SDS011;32220;49.808;9.968;2022-09-03T08:29:26;1.10;;;1.00;;
46505;SDS011;32220;49.808;9.968;2022-09-03T08:31:54;1.03;;;1.00;;
46505;SDS011;32220;49.808;9.968;2022-09-03T08:34:22;1.30;;;0.90;;
46505;SDS011;32220;49.808;9.968;2022-09-03T08:36:50;3.00;;;1.10;;
46505;SDS011;32220;49.808;9.968;2022-09-03T08:39:20;1.43;;;1.10;;
46505;SDS011;32220;49.808;9.968;2022-09-03T08:41:55;2.47;;;1.03;;
46505;SDS011;32220;49.808;9.968;2022-09-03T08:44:37;0.97;;;0.70;;
46505;SDS011;32220;49.808;9.968;2022-09-03T08:47:11;2.00;;;0.90;;
46505;SDS011;32220;49.808;9.968;2022-09-03T08:49:43;2.07;;;1.20;;
46505;SDS011;32220;49.808;9.968;2022-09-03T08:52:19;3.40;;;1.10;;
46505;SDS011;32220;49.808;9.968;2022-09-03T08:54:53;1.40;;;1.10;;
46505;SDS011;32220;49.808;9.968;2022-09-03T08:57:26;1.67;;;1.43;;
46505;SDS011;32220;49.808;9.968;2022-09-03T08:59:58;0.90;;;0.90;;
46505;SDS011;32220;49.808;9.968;2022-09-03T09:02:32;1.43;;;1.00;;
46505;SDS011;32220;49.808;9.968;2022-09-03T09:05:11;1.23;;;1.17;;
46505;SDS011;32220;49.808;9.968;2022-09-03T09:07:44;1.77;;;1.30;;
46505;SDS011;32220;49.808;9.968;2022-09-03T09:10:21;1.27;;;1.10;;
46505;SDS011;32220;49.808;9.968;2022-09-03T09:12:57;2.90;;;1.60;;
46505;SDS011;32220;49.808;9.968;2022-09-03T09:15:36;1.23;;;1.10;;
46505;SDS011;32220;49.808;9.968;2022-09-03T09:18:12;1.93;;;0.90;;
46505;SDS011;32220;49.808;9.968;2022-09-03T09:20:48;2.43;;;1.20;;
46505;SDS011;32220;49.808;9.968;2022-09-03T09:23:23;2.40;;;1.10;;
46505;SDS011;32220;49.808;9.968;2022-09-03T09:25:58;1.20;;;1.10;;
46505;SDS011;32220;49.808;9.968;2022-09-03T09:28:31;1.97;;;1.17;;
46505;SDS011;32220;49.808;9.968;2022-09-03T09:31:03;1.00;;;1.00;;
46505;SDS011;32220;49.808;9.968;2022-09-03T09:33:33;2.23;;;1.33;;
46505;SDS011;32220;49.808;9.968;2022-09-03T09:36:02;1.67;;;1.23;;
46505;SDS011;32220;49.808;9.968;2022-09-03T09:38:34;1.97;;;1.10;;
46505;SDS011;32220;49.808;9.968;2022-09-03T09:41:09;1.20;;;1.10;;
46505;SDS011;32220;49.808;9.968;2022-09-03T09:43:37;2.23;;;1.10;;
46505;SDS011;32220;49.808;9.968;2022-09-03T09:46:06;1.33;;;1.20;;
46505;SDS011;32220;49.808;9.968;2022-09-03T09:48:38;2.13;;;1.30;;
46505;SDS011;32220;49.808;9.968;2022-09-03T09:51:17;1.50;;;1.10;;
46505;SDS011;32220;49.808;9.968;2022-09-03T09:53:47;1.47;;;1.10;;
46505;SDS011;32220;49.808;9.968;2022-09-03T09:56:27;1.47;;;1.37;;
46505;SDS011;32220;49.808;9.968;2022-09-03T09:59:03;1.17;;;1.07;;
46505;SDS011;32220;49.808;9.968;2022-09-03T10:01:32;1.27;;;1.17;;
46505;SDS011;32220;49.808;9.968;2022-09-03T10:04:07;1.53;;;0.97;;
46505;SDS011;32220;49.808;9.968;2022-09-03T10:06:36;1.37;;;1.03;;
46505;SDS011;32220;49.808;9.968;2022-09-03T10:09:23;1.20;;;1.10;;
46505;SDS011;32220;49.808;9.968;2022-09-03T10:11:55;1.67;;;1.27;;
46505;SDS011;32220;49.808;9.968;2022-09-03T10:14:36;1.70;;;1.20;;
46505;SDS011;32220;49.808;9.968;2022-09-03T10:17:12;1.03;;;1.00;;
46505;SDS011;32220;49.808;9.968;2022-09-03T10:19:45;1.17;;;1.10;;
46505;SDS011;32220;49.808;9.968;2022-09-03T10:22:38;1.53;;;1.43;;
46505;SDS011;32220;49.808;9.968;2022-09-03T10:25:12;1.73;;;1.10;;
46505;SDS011;32220;49.808;9.968;2022-09-03T10:27:43;2.40;;;1.30;;
46505;SDS011;32220;49.808;9.968;2022-09-03T10:30:11;1.53;;;1.30;;
46505;SDS011;32220;49.808;9.968;2022-09-03T10:32:42;2.20;;;1.40;;
46505;SDS011;32220;49.808;9.968;2022-09-03T10:35:18;1.73;;;1.40;;
46505;SDS011;32220;49.808;9.968;2022-09-03T10:37:54;1.77;;;1.20;;
46505;SDS011;32220;49.808;9.968;2022-09-03T10:40:32;2.03;;;1.00;;
46505;SDS011;32220;49.808;9.968;2022-09-03T10:45:59;1.10;;;1.00;;
46505;SDS011;32220;49.808;9.968;2022-09-03T10:48:37;1.20;;;1.10;;
46505;SDS011;32220;49.808;9.968;2022-09-03T10:51:13;1.20;;;1.10;;
46505;SDS011;32220;49.808;9.968;2022-09-03T10:53:52;2.10;;;1.37;;
46505;SDS011;32220;49.808;9.968;2022-09-03T10:56:30;1.50;;;1.30;;
46505;SDS011;32220;49.808;9.968;2022-09-03T10:59:09;1.93;;;1.50;;
46505;SDS011;32220;49.808;9.968;2022-09-03T11:01:54;1.67;;;1.20;;
46505;SDS011;32220;49.808;9.968;2022-09-03T11:04:29;2.00;;;1.50;;
46505;SDS011;32220;49.808;9.968;2022-09-03T11:07:04;2.43;;;1.70;;
46505;SDS011;32220;49.808;9.968;2022-09-03T11:09:37;1.30;;;1.20;;
46505;SDS011;32220;49.808;9.968;2022-09-03T11:12:08;1.33;;;1.23;;
46505;SDS011;32220;49.808;9.968;2022-09-03T11:14:44;1.50;;;1.20;;
46505;SDS011;32220;49.808;9.968;2022-09-03T11:17:19;2.07;;;1.30;;
46505;SDS011;32220;49.808;9.968;2022-09-03T11:19:52;1.50;;;1.40;;
46505;SDS011;32220;49.808;9.968;2022-09-03T11:22:25;2.13;;;1.20;;
46505;SDS011;32220;49.808;9.968;2022-09-03T11:24:55;1.53;;;1.43;;
46505;SDS011;32220;49.808;9.968;2022-09-03T11:27:30;1.77;;;1.37;;
46505;SDS011;32220;49.808;9.968;2022-09-03T11:30:13;1.50;;;1.40;;
46505;SDS011;32220;49.808;9.968;2022-09-03T11:32:50;1.47;;;1.33;;
46505;SDS011;32220;49.808;9.968;2022-09-03T11:35:24;1.10;;;1.10;;
46505;SDS011;32220;49.808;9.968;2022-09-03T11:37:56;1.30;;;1.20;;
46505;SDS011;32220;49.808;9.968;2022-09-03T11:40:31;1.67;;;1.40;;
46505;SDS011;32220;49.808;9.968;2022-09-03T11:43:04;1.40;;;1.30;;
46505;SDS011;32220;49.808;9.968;2022-09-03T11:45:42;1.57;;;1.43;;
46505;SDS011;32220;49.808;9.968;2022-09-03T11:48:16;3.37;;;1.20;;
46505;SDS011;32220;49.808;9.968;2022-09-03T11:50:52;1.97;;;1.77;;
46505;SDS011;32220;49.808;9.968;2022-09-03T11:53:23;2.57;;;1.33;;
46505;SDS011;32220;49.808;9.968;2022-09-03T11:55:57;2.70;;;1.77;;
46505;SDS011;32220;49.808;9.968;2022-09-03T11:58:27;1.40;;;1.30;;
46505;SDS011;32220;49.808;9.968;2022-09-03T12:00:59;1.53;;;1.40;;
46505;SDS011;32220;49.808;9.968;2022-09-03T12:03:35;1.77;;;1.60;;
46505;SDS011;32220;49.808;9.968;2022-09-03T12:06:20;2.40;;;1.60;;
46505;SDS011;32220;49.808;9.968;2022-09-03T12:09:15;2.13;;;1.43;;
46505;SDS011;32220;49.808;9.968;2022-09-03T12:11:59;1.40;;;1.20;;
46505;SDS011;32220;49.808;9.968;2022-09-03T12:14:39;1.53;;;1.40;;
46505;SDS011;32220;49.808;9.968;2022-09-03T12:17:19;1.27;;;1.13;;
46505;SDS011;32220;49.808;9.968;2022-09-03T12:19:55;1.67;;;1.40;;
46505;SDS011;32220;49.808;9.968;2022-09-03T12:22:24;1.60;;;1.50;;
46505;SDS011;32220;49.808;9.968;2022-09-03T12:24:54;1.90;;;1.80;;
46505;SDS011;32220;49.808;9.968;2022-09-03T12:27:23;1.50;;;1.40;;
46505;SDS011;32220;49.808;9.968;2022-09-03T12:29:53;1.77;;;1.60;;
46505;SDS011;32220;49.808;9.968;2022-09-03T12:32:27;1.60;;;1.50;;
46505;SDS011;32220;49.808;9.968;2022-09-03T12:34:57;1.50;;;1.40;;
46505;SDS011;32220;49.808;9.968;2022-09-03T12:37:25;2.97;;;1.30;;
46505;SDS011;32220;49.808;9.968;2022-09-03T12:40:01;1.50;;;1.40;;
46505;SDS011;32220;49.808;9.968;2022-09-03T12:42:29;1.60;;;1.50;;
46505;SDS011;32220;49.808;9.968;2022-09-03T12:45:04;2.27;;;1.30;;
46505;SDS011;32220;49.808;9.968;2022-09-03T12:47:38;2.20;;;1.37;;
46505;SDS011;32220;49.808;9.968;2022-09-03T12:50:07;1.30;;;1.20;;
46505;SDS011;32220;49.808;9.968;2022-09-03T12:52:37;1.43;;;1.33;;
46505;SDS011;32220;49.808;9.968;2022-09-03T12:55:12;2.93;;;1.20;;
46505;SDS011;32220;49.808;9.968;2022-09-03T12:57:48;1.33;;;1.23;;
46505;SDS011;32220;49.808;9.968;2022-09-03T13:00:20;1.43;;;1.33;;
46505;SDS011;32220;49.808;9.968;2022-09-03T13:02:51;1.70;;;1.13;;
46505;SDS011;32220;49.808;9.968;2022-09-03T13:05:24;1.53;;;1.43;;
46505;SDS011;32220;49.808;9.968;2022-09-03T13:07:59;2.90;;;1.50;;
46505;SDS011;32220;49.808;9.968;2022-09-03T13:10:30;2.00;;;1.40;;
46505;SDS011;32220;49.808;9.968;2022-09-03T13:13:02;2.37;;;1.17;;
46505;SDS011;32220;49.808;9.968;2022-09-03T13:15:54;1.40;;;1.10;;
46505;SDS011;32220;49.808;9.968;2022-09-03T13:18:28;1.10;;;1.10;;
46505;SDS011;32220;49.808;9.968;2022-09-03T13:21:10;3.23;;;1.40;;
46505;SDS011;32220;49.808;9.968;2022-09-03T13:23:52;1.53;;;1.43;;
46505;SDS011;32220;49.808;9.968;2022-09-03T13:26:38;1.57;;;1.40;;
46505;SDS011;32220;49.808;9.968;2022-09-03T13:29:24;1.43;;;1.33;;
46505;SDS011;32220;49.808;9.968;2022-09-03T13:32:07;1.87;;;1.57;;
46505;SDS011;32220;49.808;9.968;2022-09-03T13:34:47;1.27;;;1.20;;
46505;SDS011;32220;49.808;9.968;2022-09-03T13:37:22;4.73;;;1.67;;
46505;SDS011;32220;49.808;9.968;2022-09-03T13:39:54;1.10;;;1.10;;
46505;SDS011;32220;49.808;9.968;2022-09-03T13:42:26;1.97;;;1.20;;
46505;SDS011;32220;49.808;9.968;2022-09-03T13:45:04;1.50;;;1.40;;
46505;SDS011;32220;49.808;9.968;2022-09-03T13:47:41;1.83;;;1.33;;
46505;SDS011;32220;49.808;9.968;2022-09-03T13:50:28;2.00;;;1.40;;
46505;SDS011;32220;49.808;9.968;2022-09-03T13:53:05;2.10;;;1.30;;
46505;SDS011;32220;49.808;9.968;2022-09-03T13:55:36;1.60;;;1.50;;
46505;SDS011;32220;49.808;9.968;2022-09-03T13:58:17;1.50;;;1.40;;
46505;SDS011;32220;49.808;9.968;2022-09-03T14:00:51;1.50;;;1.40;;
46505;SDS011;32220;49.808;9.968;2022-09-03T14:03:31;3.00;;;1.40;;
46505;SDS011;32220;49.808;9.968;2022-09-03T14:06:06;2.30;;;1.67;;
46505;SDS011;32220;49.808;9.968;2022-09-03T14:08:42;1.70;;;1.60;;
46505;SDS011;32220;49.808;9.968;2022-09-03T14:11:20;1.60;;;1.20;;
46505;SDS011;32220;49.808;9.968;2022-09-03T14:13:56;2.03;;;1.57;;
46505;SDS011;32220;49.808;9.968;2022-09-03T14:16:34;3.70;;;1.73;;
46505;SDS011;32220;49.808;9.968;2022-09-03T14:19:10;1.53;;;1.43;;
46505;SDS011;32220;49.808;9.968;2022-09-03T14:21:44;1.60;;;1.50;;
46505;SDS011;32220;49.808;9.968;2022-09-03T14:24:19;1.60;;;1.50;;
46505;SDS011;32220;49.808;9.968;2022-09-03T14:26:51;1.70;;;1.60;;
46505;SDS011;32220;49.808;9.968;2022-09-03T14:29:23;2.43;;;1.70;;
46505;SDS011;32220;49.808;9.968;2022-09-03T14:32:00;1.73;;;1.63;;
46505;SDS011;32220;49.808;9.968;2022-09-03T14:34:42;3.50;;;2.20;;
46505;SDS011;32220;49.808;9.968;2022-09-03T14:40:23;1.50;;;1.40;;
46505;SDS011;32220;49.808;9.968;2022-09-03T14:43:05;1.57;;;1.47;;
46505;SDS011;32220;49.808;9.968;2022-09-03T14:45:52;1.70;;;1.40;;
46505;SDS011;32220;49.808;9.968;2022-09-03T14:48:31;3.23;;;1.80;;
46505;SDS011;32220;49.808;9.968;2022-09-03T14:51:12;3.13;;;1.97;;
46505;SDS011;32220;49.808;9.968;2022-09-03T14:53:55;3.77;;;1.97;;
46505;SDS011;32220;49.808;9.968;2022-09-03T14:56:49;2.93;;;1.80;;
46505;SDS011;32220;49.808;9.968;2022-09-03T14:59:43;1.70;;;1.60;;
46505;SDS011;32220;49.808;9.968;2022-09-03T15:02:47;1.90;;;1.80;;
46505;SDS011;32220;49.808;9.968;2022-09-03T15:05:35;1.90;;;1.80;;
46505;SDS011;32220;49.808;9.968;2022-09-03T15:08:14;1.80;;;1.70;;
46505;SDS011;32220;49.808;9.968;2022-09-03T15:11:00;1.70;;;1.60;;
46505;SDS011;32220;49.808;9.968;2022-09-03T15:13:32;3.70;;;1.43;;
46505;SDS011;32220;49.808;9.968;2022-09-03T15:16:12;3.53;;;1.27;;
46505;SDS011;32220;49.808;9.968;2022-09-03T15:18:55;1.53;;;1.40;;
46505;SDS011;32220;49.808;9.968;2022-09-03T15:21:39;1.50;;;1.40;;
46505;SDS011;32220;49.808;9.968;2022-09-03T15:24:19;1.80;;;1.70;;
46505;SDS011;32220;49.808;9.968;2022-09-03T15:26:56;1.90;;;1.80;;
46505;SDS011;32220;49.808;9.968;2022-09-03T15:29:44;1.40;;;1.30;;
46505;SDS011;32220;49.808;9.968;2022-09-03T15:32:19;1.20;;;0.97;;
46505;SDS011;32220;49.808;9.968;2022-09-03T15:34:59;1.23;;;1.20;;
46505;SDS011;32220;49.808;9.968;2022-09-03T15:37:33;1.60;;;1.50;;